Time;durP1;ratioP1;P1;durP2;ratioP2;P2;SDS_P1;SDS_P2;PMS_P1;PMS_P2;Temp;Humidity;BMP_temperature;BMP_pressure;BME280_temperature;BME280_humidity;BME280_pressure;Samples;Min_cycle;Max_cycle;Signal;HPM_P1;HPM_P2
2022/01/25 00:24:20;;;;;;;50.60;26.92;;;4.30;98.10;;;;;;5070931;28;20048;-66
2022/01/25 00:26:37;;;;;;;48.88;27.33;;;4.30;98.10;;;;;;5070875;28;20503;-66
2022/01/25 00:29:08;;;;;;;49.90;25.73;;;4.30;98.00;;;;;;5070194;28;20106;-67
2022/01/25 00:31:37;;;;;;;46.05;25.35;;;4.30;98.10;;;;;;5070781;28;20098;-67
2022/01/25 00:34:04;;;;;;;48.88;25.25;;;4.30;98.20;;;;;;5070226;28;20833;-67
2022/01/25 00:36:31;;;;;;;47.05;25.60;;;4.30;98.00;;;;;;5070465;28;20052;-68
2022/01/25 00:38:58;;;;;;;44.60;24.48;;;4.30;97.90;;;;;;5070383;28;20090;-67
2022/01/25 00:41:25;;;;;;;42.80;24.20;;;4.30;97.90;;;;;;5070149;28;20049;-67
2022/01/25 00:43:52;;;;;;;46.90;25.00;;;4.20;97.80;;;;;;5070327;28;20044;-67
2022/01/25 00:46:21;;;;;;;43.78;24.35;;;4.20;97.90;;;;;;5052745;28;20678;-67
2022/01/25 00:48:50;;;;;;;43.97;23.70;;;4.20;98.00;;;;;;5069698;28;20088;-68
2022/01/25 00:54:13;;;;;;;50.97;26.65;;;4.10;98.00;;;;;;5069644;28;20087;-66
2022/01/25 00:56:45;;;;;;;52.55;28.02;;;4.10;98.00;;;;;;5070344;28;20044;-67
2022/01/25 00:59:13;;;;;;;45.70;24.95;;;4.10;98.00;;;;;;5068930;28;20098;-67
2022/01/25 01:01:40;;;;;;;49.42;27.73;;;4.10;98.10;;;;;;5069964;28;20048;-67
2022/01/25 01:04:07;;;;;;;46.35;24.60;;;4.10;98.00;;;;;;5070076;28;20044;-67
2022/01/25 01:06:35;;;;;;;45.33;24.23;;;4.10;98.00;;;;;;5070059;28;20141;-67
2022/01/25 01:09:02;;;;;;;52.30;26.90;;;4.10;98.10;;;;;;5069840;28;20105;-67
2022/01/25 01:11:36;;;;;;;47.33;25.40;;;4.10;98.00;;;;;;5065480;28;20080;-67
2022/01/25 01:43:32;;;;;;;47.67;23.10;;;3.90;97.90;;;;;;5069791;28;20381;-67
2022/01/25 01:46:19;;;;;;;47.05;22.92;;;3.90;98.00;;;;;;5069157;28;20048;-68
2022/01/25 01:48:52;;;;;;;42.75;23.15;;;3.90;98.00;;;;;;5069457;28;20057;-67
2022/01/25 01:51:27;;;;;;;43.40;23.45;;;3.90;98.00;;;;;;5069530;28;20123;-67
2022/01/25 01:53:56;;;;;;;45.65;23.20;;;3.90;98.10;;;;;;5069182;28;20491;-67
2022/01/25 01:56:22;;;;;;;41.15;23.23;;;3.80;98.00;;;;;;5069169;28;20044;-67
2022/01/25 01:58:54;;;;;;;48.42;23.98;;;3.80;98.20;;;;;;5069624;28;20075;-67
2022/01/25 02:01:24;;;;;;;38.92;20.90;;;3.90;98.20;;;;;;5068007;28;20094;-67
2022/01/25 02:03:51;;;;;;;41.65;20.65;;;3.80;98.00;;;;;;5069557;28;20446;-67
2022/01/25 02:06:18;;;;;;;41.55;22.90;;;3.80;98.10;;;;;;5069106;28;20642;-68
2022/01/25 02:08:45;;;;;;;41.28;22.08;;;3.90;98.10;;;;;;5070348;28;20103;-67
2022/01/25 02:11:12;;;;;;;36.95;20.67;;;3.90;98.20;;;;;;5071404;28;20070;-68
2022/01/25 02:13:41;;;;;;;36.00;19.90;;;3.70;98.10;;;;;;5069670;28;20044;-68
2022/01/25 02:16:15;;;;;;;35.95;20.48;;;3.60;98.30;;;;;;5067625;28;20079;-69
2022/01/25 02:24:13;;;;;;;39.90;20.08;;;3.60;98.20;;;;;;5069259;28;20045;-70
2022/01/25 02:26:40;;;;;;;39.80;21.02;;;3.70;98.30;;;;;;5069057;28;20102;-68
2022/01/25 02:29:06;;;;;;;44.33;23.30;;;3.70;98.30;;;;;;5067900;28;20053;-68
2022/01/25 02:31:33;;;;;;;37.20;19.95;;;3.70;98.20;;;;;;5069266;28;20065;-69
2022/01/25 02:34:00;;;;;;;44.97;22.00;;;3.60;98.30;;;;;;5068596;28;20106;-68
2022/01/25 02:36:27;;;;;;;37.78;21.23;;;3.60;98.40;;;;;;5070025;28;20052;-69
2022/01/25 02:38:55;;;;;;;42.90;21.92;;;3.70;98.40;;;;;;5070354;28;20488;-68
2022/01/25 02:41:22;;;;;;;44.05;22.38;;;3.70;98.30;;;;;;5070440;28;20079;-66
2022/01/25 02:43:50;;;;;;;42.70;21.23;;;3.80;98.40;;;;;;5071960;28;20080;-66
2022/01/25 02:48:30;;;;;;;43.33;20.20;;;3.80;98.20;;;;;;5072376;28;20099;-66
2022/01/25 02:49:08;;;;;;;36.22;21.98;;;3.80;98.20;;;;;;5072047;28;20085;-66
2022/01/25 02:51:43;;;;;;;42.55;22.05;;;3.80;98.30;;;;;;5071448;28;20044;-66
2022/01/25 02:54:10;;;;;;;43.28;23.15;;;3.80;98.30;;;;;;5072121;28;20045;-66
2022/01/25 02:56:38;;;;;;;45.42;23.40;;;3.80;98.30;;;;;;5071033;28;20048;-67
2022/01/25 02:59:05;;;;;;;40.20;22.33;;;3.90;98.20;;;;;;5072254;28;20053;-66
2022/01/25 03:01:33;;;;;;;40.75;21.77;;;3.80;98.10;;;;;;5074407;28;20041;-69
2022/01/25 03:03:59;;;;;;;38.40;23.15;;;3.90;98.20;;;;;;5079116;28;20127;-67
2022/01/25 03:06:26;;;;;;;42.55;22.83;;;3.80;98.20;;;;;;5071972;28;20048;-66
2022/01/25 03:08:53;;;;;;;42.28;22.10;;;3.80;98.20;;;;;;5070822;28;20075;-66
2022/01/25 03:11:22;;;;;;;44.42;21.95;;;3.80;98.20;;;;;;5072279;28;20133;-66
2022/01/25 03:16:21;;;;;;;36.65;21.13;;;3.70;98.20;;;;;;5071802;28;20098;-67
2022/01/25 03:18:49;;;;;;;37.75;21.60;;;3.70;98.30;;;;;;5070473;28;20048;-67
2022/01/25 03:23:43;;;;;;;42.90;22.50;;;3.70;98.40;;;;;;5072400;28;20045;-67
2022/01/25 03:26:10;;;;;;;46.38;24.52;;;3.70;98.50;;;;;;5071988;28;20135;-67
2022/01/25 03:28:37;;;;;;;45.15;21.58;;;3.70;98.20;;;;;;5072867;28;20048;-68
2022/01/25 03:31:04;;;;;;;46.55;21.58;;;3.70;98.20;;;;;;5071734;28;20094;-67
2022/01/25 03:33:31;;;;;;;38.83;21.42;;;3.70;98.20;;;;;;5071281;28;20064;-70
2022/01/25 03:35:57;;;;;;;40.38;20.33;;;3.70;98.30;;;;;;5070394;28;20090;-67
2022/01/25 03:38:24;;;;;;;45.10;23.23;;;3.80;98.30;;;;;;5071444;28;20052;-69
2022/01/25 03:40:51;;;;;;;42.25;21.13;;;3.80;98.40;;;;;;5070375;28;20079;-66
2022/01/25 03:43:19;;;;;;;46.38;23.17;;;3.70;98.10;;;;;;5071450;28;20066;-67
2022/01/25 03:45:58;;;;;;;38.47;21.38;;;3.70;98.20;;;;;;5071097;28;20056;-71
2022/01/25 03:50:51;;;;;;;40.92;22.52;;;3.70;98.10;;;;;;5067446;28;20053;-67
2022/01/25 03:53:19;;;;;;;44.00;23.70;;;3.70;98.10;;;;;;5070406;28;20101;-67
2022/01/25 03:55:46;;;;;;;38.45;19.58;;;3.80;98.20;;;;;;5070613;28;20068;-67
2022/01/25 03:58:14;;;;;;;44.63;21.95;;;3.70;98.30;;;;;;5071373;28;20385;-67
2022/01/25 04:00:41;;;;;;;45.42;22.20;;;3.90;98.30;;;;;;5070986;28;20086;-66
2022/01/25 04:03:19;;;;;;;44.00;23.05;;;3.70;98.30;;;;;;5065417;28;20045;-66
2022/01/25 04:08:13;;;;;;;42.58;22.15;;;3.70;98.30;;;;;;5070834;28;20109;-66
2022/01/25 04:10:40;;;;;;;45.95;22.77;;;4.00;98.40;;;;;;5071649;28;20075;-68
2022/01/25 04:13:08;;;;;;;42.95;23.67;;;3.60;98.60;;;;;;5071263;28;20040;-67
2022/01/25 04:15:35;;;;;;;49.00;23.60;;;3.60;98.50;;;;;;5071091;28;20059;-67
2022/01/25 04:18:28;;;;;;;44.05;22.70;;;3.60;98.40;;;;;;5070617;28;20044;-68
2022/01/25 04:21:09;;;;;;;44.58;22.88;;;3.60;98.40;;;;;;5070317;28;20503;-66
2022/01/25 04:26:21;;;;;;;41.83;22.90;;;3.60;98.60;;;;;;5070138;28;20079;-66
2022/01/25 04:28:48;;;;;;;47.45;25.42;;;3.50;98.90;;;;;;5070562;28;20076;-66
2022/01/25 04:31:18;;;;;;;44.22;23.13;;;3.50;98.60;;;;;;5070851;28;20056;-66
2022/01/25 04:34:06;;;;;;;43.22;23.30;;;3.60;98.60;;;;;;5072762;28;20483;-66
2022/01/25 04:50:12;;;;;;;51.60;27.45;;;3.70;98.40;;;;;;5070262;28;20100;-66
2022/01/25 04:52:53;;;;;;;44.63;23.27;;;3.80;98.30;;;;;;5070216;28;20045;-66
2022/01/25 04:55:28;;;;;;;43.83;22.02;;;3.80;98.30;;;;;;5070531;28;20615;-68
2022/01/25 04:58:09;;;;;;;44.97;23.73;;;3.80;98.20;;;;;;5069766;28;20052;-66
2022/01/25 05:00:36;;;;;;;36.92;20.42;;;3.70;98.20;;;;;;5070143;28;20048;-67
2022/01/25 05:03:12;;;;;;;44.17;23.23;;;3.70;98.30;;;;;;5068435;28;20068;-67
2022/01/25 05:11:12;;;;;;;45.20;24.10;;;3.80;98.40;;;;;;5050040;28;20080;-67
2022/01/25 05:13:46;;;;;;;43.50;22.90;;;3.70;98.50;;;;;;5065576;28;20098;-67
2022/01/25 05:16:26;;;;;;;49.47;24.08;;;3.60;98.70;;;;;;5066573;28;21089;-67
2022/01/25 05:19:04;;;;;;;43.58;23.88;;;3.60;98.50;;;;;;5069585;28;20422;-67
2022/01/25 05:24:16;;;;;;;45.45;22.95;;;3.60;98.50;;;;;;5066656;28;20145;-67
2022/01/25 05:26:43;;;;;;;39.78;20.00;;;3.50;98.70;;;;;;5069841;28;20463;-67
2022/01/25 05:29:10;;;;;;;49.85;24.52;;;3.40;98.90;;;;;;5069409;28;20084;-68
2022/01/25 05:31:37;;;;;;;42.97;22.90;;;3.40;99.00;;;;;;5069649;28;20053;-67
2022/01/25 05:34:04;;;;;;;47.63;23.90;;;3.30;98.90;;;;;;5069560;28;20053;-67
2022/01/25 05:36:31;;;;;;;44.15;22.83;;;3.40;99.00;;;;;;5068345;28;20087;-67
2022/01/25 05:39:01;;;;;;;48.65;22.85;;;3.50;98.70;;;;;;5069446;28;20122;-67
2022/01/25 05:41:31;;;;;;;43.28;22.80;;;3.50;98.70;;;;;;5069468;28;20079;-67
2022/01/25 05:44:53;;;;;;;50.65;24.05;;;3.50;98.80;;;;;;5069333;28;20053;-67
2022/01/25 05:47:04;;;;;;;48.53;24.13;;;3.50;98.80;;;;;;5066408;28;20128;-67
2022/01/25 05:49:32;;;;;;;39.22;21.80;;;3.60;98.80;;;;;;5068967;28;20090;-67
2022/01/25 05:51:59;;;;;;;49.58;24.27;;;3.50;98.60;;;;;;5069331;28;20049;-67
2022/01/25 05:54:26;;;;;;;49.85;25.48;;;3.50;98.70;;;;;;5069251;28;20045;-67
2022/01/25 05:56:53;;;;;;;38.38;20.73;;;3.50;98.70;;;;;;5069522;28;20049;-67
2022/01/25 05:59:19;;;;;;;49.95;26.73;;;3.40;98.80;;;;;;5069492;28;20076;-67
2022/01/25 06:01:47;;;;;;;43.60;22.77;;;3.60;98.90;;;;;;5069546;28;20044;-67
2022/01/25 06:04:18;;;;;;;47.53;24.23;;;3.50;98.80;;;;;;5070484;28;20118;-67
2022/01/25 06:06:44;;;;;;;45.38;23.67;;;3.30;98.90;;;;;;5073183;28;20120;-68
2022/01/25 06:09:13;;;;;;;44.13;22.75;;;3.40;99.00;;;;;;5084469;28;20044;-67
2022/01/25 06:11:40;;;;;;;44.85;23.45;;;3.40;99.10;;;;;;5069110;28;20094;-67
2022/01/25 06:14:07;;;;;;;45.92;24.27;;;3.40;99.00;;;;;;5069021;28;20122;-67
2022/01/25 06:16:34;;;;;;;47.63;24.13;;;3.40;98.80;;;;;;5068186;28;20048;-67
2022/01/25 06:19:01;;;;;;;41.53;21.50;;;3.40;98.80;;;;;;5073059;28;20044;-67
2022/01/25 06:21:28;;;;;;;44.83;21.80;;;3.50;98.80;;;;;;5074045;28;20044;-69
2022/01/25 06:23:55;;;;;;;46.22;23.83;;;3.70;98.90;;;;;;5073803;28;20052;-68
2022/01/25 06:26:22;;;;;;;47.20;24.42;;;3.60;98.70;;;;;;5072395;28;20080;-68
2022/01/25 06:28:48;;;;;;;51.00;24.70;;;3.60;98.70;;;;;;5072931;28;20068;-68
2022/01/25 06:31:17;;;;;;;50.67;25.25;;;3.60;98.80;;;;;;5072632;28;20079;-67
2022/01/25 06:33:45;;;;;;;49.10;24.17;;;3.60;98.90;;;;;;5072886;28;20072;-67
2022/01/25 06:36:12;;;;;;;47.72;23.60;;;3.60;98.80;;;;;;5067420;28;20550;-67
2022/01/25 06:38:38;;;;;;;52.88;25.80;;;3.60;98.80;;;;;;5063362;28;20102;-67
2022/01/25 06:41:05;;;;;;;47.53;23.02;;;3.60;98.90;;;;;;5064035;28;20041;-67
2022/01/25 06:43:32;;;;;;;45.92;23.33;;;3.60;98.80;;;;;;5068392;28;20048;-67
2022/01/25 06:46:03;;;;;;;50.60;25.42;;;3.60;98.80;;;;;;5067914;28;20055;-67
2022/01/25 06:48:31;;;;;;;46.40;24.58;;;3.60;98.80;;;;;;5061294;28;20435;-67
2022/01/25 06:50:58;;;;;;;48.28;23.42;;;3.60;98.70;;;;;;5064581;28;20053;-67
2022/01/25 06:53:25;;;;;;;43.28;22.67;;;3.60;98.70;;;;;;5067779;28;20048;-67
2022/01/25 06:55:52;;;;;;;53.30;25.73;;;3.60;98.80;;;;;;5071668;28;20048;-67
2022/01/25 06:58:19;;;;;;;46.97;24.75;;;3.50;98.80;;;;;;5070673;28;20470;-67
2022/01/25 07:00:45;;;;;;;48.53;23.20;;;3.50;98.70;;;;;;5071642;28;20105;-66
2022/01/25 07:03:12;;;;;;;51.05;23.35;;;3.50;98.80;;;;;;5071807;28;20140;-68
2022/01/25 07:05:39;;;;;;;54.45;26.17;;;3.60;98.90;;;;;;5072041;28;20048;-67
2022/01/25 07:08:06;;;;;;;48.83;26.02;;;3.60;98.80;;;;;;5071998;28;20083;-68
2022/01/25 07:10:33;;;;;;;47.00;24.85;;;3.60;98.80;;;;;;5068842;28;20110;-66
2022/01/25 07:13:00;;;;;;;45.83;24.30;;;3.60;98.80;;;;;;5070124;28;20053;-66
2022/01/25 07:15:26;;;;;;;48.40;24.90;;;3.70;98.80;;;;;;5071999;28;20056;-66
2022/01/25 07:17:53;;;;;;;46.28;22.75;;;3.60;98.70;;;;;;5073338;28;20103;-66
2022/01/25 07:20:20;;;;;;;46.28;22.50;;;3.50;98.70;;;;;;5069543;28;20110;-67
2022/01/25 07:22:47;;;;;;;48.25;23.92;;;3.50;98.70;;;;;;5064910;28;20063;-67
2022/01/25 07:25:14;;;;;;;42.33;22.52;;;3.50;98.70;;;;;;5067231;28;20094;-66
2022/01/25 07:27:40;;;;;;;46.67;23.40;;;3.40;98.90;;;;;;5064313;28;20495;-67
2022/01/25 07:30:08;;;;;;;48.35;23.23;;;3.40;99.10;;;;;;5059602;28;20098;-67
2022/01/25 07:32:34;;;;;;;45.55;21.95;;;3.30;99.30;;;;;;5063161;28;20141;-68
2022/01/25 07:35:04;;;;;;;46.10;23.08;;;3.40;99.00;;;;;;5060307;28;20056;-67
2022/01/25 07:37:40;;;;;;;48.63;24.63;;;3.50;98.90;;;;;;5062002;28;20044;-66
2022/01/25 07:40:15;;;;;;;50.72;25.30;;;3.60;99.00;;;;;;5066283;28;20139;-67
2022/01/25 07:42:42;;;;;;;44.00;21.58;;;3.50;98.80;;;;;;5059865;28;20264;-67
2022/01/25 07:45:24;;;;;;;49.80;22.85;;;3.50;98.60;;;;;;5046292;28;20071;-67
2022/01/25 07:47:51;;;;;;;48.78;22.67;;;3.60;98.70;;;;;;5047979;28;20458;-68
2022/01/25 07:50:18;;;;;;;51.30;24.08;;;3.60;98.80;;;;;;5068295;28;20056;-67
2022/01/25 07:52:45;;;;;;;49.67;22.42;;;3.60;98.70;;;;;;5068839;28;20519;-69
2022/01/25 07:55:12;;;;;;;45.97;24.17;;;3.70;98.80;;;;;;5069097;28;20052;-67
2022/01/25 07:57:39;;;;;;;58.58;23.33;;;3.60;98.90;;;;;;5069026;28;20066;-67
2022/01/25 08:00:06;;;;;;;47.58;24.33;;;3.60;98.90;;;;;;5069213;28;20435;-67
2022/01/25 08:02:33;;;;;;;48.40;23.80;;;3.50;98.80;;;;;;5067286;28;20421;-67
2022/01/25 08:05:26;;;;;;;55.22;24.95;;;3.50;99.10;;;;;;5031559;28;20106;-67
2022/01/25 08:08:10;;;;;;;48.25;23.88;;;3.50;99.00;;;;;;5032207;28;20040;-68
2022/01/25 08:10:51;;;;;;;49.28;23.20;;;3.50;99.00;;;;;;5021281;28;20057;-67
2022/01/25 08:13:32;;;;;;;45.22;23.42;;;3.50;98.90;;;;;;5013810;28;20378;-71
2022/01/25 08:16:13;;;;;;;42.88;21.20;;;3.50;98.60;;;;;;5027751;28;20053;-66
2022/01/25 08:19:03;;;;;;;44.65;22.63;;;3.50;98.80;;;;;;5027219;28;20044;-66
2022/01/25 08:21:56;;;;;;;46.83;21.25;;;3.50;98.80;;;;;;4987513;28;20046;-66
2022/01/25 08:24:30;;;;;;;45.22;24.52;;;4.30;98.90;;;;;;4988348;28;20050;-66
2022/01/25 08:27:11;;;;;;;44.92;23.13;;;3.50;98.70;;;;;;4987113;28;20047;-67
2022/01/25 08:29:56;;;;;;;49.45;24.80;;;3.50;98.80;;;;;;4980177;28;20120;-69
2022/01/25 08:32:39;;;;;;;46.13;23.27;;;3.50;99.00;;;;;;4969590;28;20054;-68
2022/01/25 08:35:38;;;;;;;50.20;22.92;;;3.50;98.80;;;;;;4985104;28;20077;-69
2022/01/25 08:38:25;;;;;;;43.60;21.67;;;3.60;98.90;;;;;;4955235;28;20190;-66
2022/01/25 08:40:52;;;;;;;52.50;25.90;;;3.50;98.80;;;;;;4988727;28;20093;-66
2022/01/25 08:43:24;;;;;;;45.20;20.58;;;3.50;98.90;;;;;;5007904;28;20549;-67
2022/01/25 08:46:04;;;;;;;52.80;24.75;;;3.50;98.80;;;;;;5003379;28;20053;-67
2022/01/25 08:48:45;;;;;;;51.78;24.35;;;3.80;98.80;;;;;;4989185;28;20112;-67
2022/01/25 08:51:27;;;;;;;49.33;23.95;;;3.50;98.90;;;;;;4992521;28;20095;-67
2022/01/25 08:54:11;;;;;;;47.25;22.85;;;3.80;99.00;;;;;;4967585;28;20046;-66
2022/01/25 08:56:55;;;;;;;47.85;24.55;;;3.60;98.70;;;;;;5006880;28;20114;-66
2022/01/25 08:59:38;;;;;;;45.90;22.48;;;3.60;98.70;;;;;;5028711;28;20048;-68
2022/01/25 09:02:05;;;;;;;48.72;23.90;;;3.60;98.80;;;;;;5067735;28;20063;-66
2022/01/25 09:04:32;;;;;;;48.70;24.27;;;3.60;98.70;;;;;;5068636;28;20587;-68
2022/01/25 09:06:59;;;;;;;51.35;24.58;;;3.70;98.80;;;;;;5067407;28;20492;-67
2022/01/25 09:09:26;;;;;;;47.67;24.85;;;3.70;98.70;;;;;;5066813;28;20515;-67
2022/01/25 09:11:53;;;;;;;48.22;23.95;;;3.70;98.60;;;;;;5065991;28;20087;-67
2022/01/25 09:14:19;;;;;;;55.33;24.83;;;3.70;98.70;;;;;;5068728;28;20074;-68
2022/01/25 09:16:46;;;;;;;51.67;24.63;;;3.60;98.80;;;;;;5068263;28;20044;-67
2022/01/25 09:19:13;;;;;;;49.13;23.35;;;3.70;98.80;;;;;;5068215;28;20533;-67
2022/01/25 09:21:40;;;;;;;43.95;21.67;;;3.60;98.90;;;;;;5068247;28;20127;-66
2022/01/25 09:24:08;;;;;;;50.58;25.35;;;3.60;98.60;;;;;;5068280;28;20116;-66
2022/01/25 09:26:35;;;;;;;45.00;24.13;;;3.60;98.60;;;;;;5067846;28;20075;-67
2022/01/25 09:29:02;;;;;;;45.67;23.33;;;3.50;98.70;;;;;;5050645;28;20083;-66
2022/01/25 09:31:31;;;;;;;43.13;22.90;;;3.50;98.80;;;;;;5066830;28;20555;-66
2022/01/25 09:33:58;;;;;;;47.85;23.88;;;3.40;98.80;;;;;;5066986;28;20431;-67
2022/01/25 09:36:24;;;;;;;46.90;22.50;;;3.30;99.00;;;;;;5067533;28;20045;-66
2022/01/25 09:38:55;;;;;;;47.67;23.58;;;3.30;98.90;;;;;;5066334;28;20052;-68
2022/01/25 09:41:22;;;;;;;57.10;23.83;;;3.40;98.90;;;;;;5068249;28;20045;-66
2022/01/25 09:43:48;;;;;;;47.95;22.88;;;3.50;99.00;;;;;;5068298;28;20045;-66
2022/01/25 09:46:16;;;;;;;52.00;23.85;;;3.50;98.80;;;;;;5067872;28;20040;-67
2022/01/25 09:48:43;;;;;;;52.40;22.85;;;3.60;98.70;;;;;;5068261;28;20131;-67
2022/01/25 09:51:10;;;;;;;48.85;22.55;;;3.60;98.60;;;;;;5068268;28;20056;-67
2022/01/25 09:53:40;;;;;;;52.85;24.30;;;3.60;98.60;;;;;;5070383;28;20064;-67
2022/01/25 09:56:07;;;;;;;45.08;22.83;;;3.70;98.60;;;;;;5071264;28;20076;-67
2022/01/25 09:58:34;;;;;;;49.45;25.95;;;3.70;98.60;;;;;;5053501;28;20048;-68
2022/01/25 10:01:01;;;;;;;49.17;23.65;;;3.80;98.60;;;;;;5072559;28;20229;-67
2022/01/25 10:03:34;;;;;;;53.17;25.85;;;3.80;98.40;;;;;;5070714;28;20101;-68
2022/01/25 10:06:02;;;;;;;50.25;23.30;;;3.80;98.40;;;;;;5039431;28;20389;-67
2022/01/25 10:08:33;;;;;;;47.28;23.42;;;3.70;98.30;;;;;;5071746;28;20048;-67
2022/01/25 10:11:02;;;;;;;50.75;24.33;;;3.70;98.40;;;;;;5052441;28;20079;-66
2022/01/25 10:13:37;;;;;;;47.95;22.27;;;3.70;98.40;;;;;;5065516;28;20070;-66
2022/01/25 10:16:14;;;;;;;51.13;24.20;;;3.70;98.40;;;;;;5071986;28;20044;-66
2022/01/25 10:18:53;;;;;;;61.67;25.20;;;3.70;98.50;;;;;;5071447;28;20148;-66
2022/01/25 10:21:34;;;;;;;49.45;24.30;;;3.70;98.40;;;;;;5052513;28;20397;-67
2022/01/25 10:24:18;;;;;;;58.42;26.48;;;3.70;98.50;;;;;;5068389;28;20118;-68
2022/01/25 10:26:58;;;;;;;44.78;22.95;;;3.80;98.50;;;;;;5056884;28;20068;-67
2022/01/25 10:29:31;;;;;;;48.58;24.08;;;3.70;98.30;;;;;;5070530;28;20102;-68
2022/01/25 10:32:00;;;;;;;44.10;23.95;;;3.60;98.40;;;;;;5072408;28;20125;-67
2022/01/25 10:34:45;;;;;;;47.67;22.33;;;3.70;98.50;;;;;;5054311;28;20082;-66
2022/01/25 10:37:15;;;;;;;;;;;3.60;98.50;;;;;;5072638;28;20443;-66
2022/01/25 10:39:44;;;;;;;55.20;22.75;;;3.70;98.40;;;;;;5071871;28;19928;-67
2022/01/25 10:42:18;;;;;;;49.47;23.98;;;3.70;98.50;;;;;;5072126;28;20536;-67
2022/01/25 10:44:45;;;;;;;48.30;22.63;;;3.80;98.40;;;;;;5070819;28;20560;-67
2022/01/25 10:47:12;;;;;;;46.47;23.55;;;3.80;98.30;;;;;;5052023;28;20091;-67
2022/01/25 10:49:45;;;;;;;49.42;25.40;;;3.80;98.30;;;;;;5064602;28;20129;-67
2022/01/25 10:52:12;;;;;;;51.53;23.10;;;3.70;98.50;;;;;;5070513;28;20056;-67
2022/01/25 10:54:40;;;;;;;50.97;23.20;;;3.70;98.40;;;;;;5069930;28;20049;-66
2022/01/25 10:57:27;;;;;;;56.28;24.92;;;3.70;98.60;;;;;;5069433;28;20076;-67
2022/01/25 11:00:14;;;;;;;50.65;22.30;;;3.40;98.70;;;;;;5070333;28;20472;-66
2022/01/25 11:02:51;;;;;;;43.40;22.95;;;3.40;98.70;;;;;;5071920;28;20132;-66
2022/01/25 11:05:18;;;;;;;51.35;24.88;;;3.40;98.70;;;;;;5073205;28;20044;-67
2022/01/25 11:07:46;;;;;;;46.53;22.83;;;3.10;98.60;;;;;;5074399;28;20063;-66
2022/01/25 11:10:14;;;;;;;44.55;22.92;;;3.60;98.70;;;;;;5070274;28;20095;-67
2022/01/25 11:12:48;;;;;;;53.20;24.73;;;3.70;98.60;;;;;;5068613;28;20049;-66
2022/01/25 11:15:31;;;;;;;49.70;25.45;;;3.70;98.30;;;;;;5056194;28;20048;-66
2022/01/25 11:17:58;;;;;;;51.58;24.02;;;3.80;98.40;;;;;;5070062;28;20098;-67
2022/01/25 11:20:25;;;;;;;46.75;23.63;;;3.70;98.50;;;;;;5069496;28;20045;-66
2022/01/25 11:22:52;;;;;;;48.28;23.02;;;3.70;98.50;;;;;;5068724;28;20541;-66
2022/01/25 11:25:19;;;;;;;47.42;22.55;;;3.90;98.60;;;;;;5068282;28;20411;-67
2022/01/25 11:27:45;;;;;;;63.92;26.17;;;3.70;98.50;;;;;;5068514;28;20186;-67
2022/01/25 11:30:17;;;;;;;51.92;25.17;;;3.70;98.90;;;;;;5069416;28;20055;-68
2022/01/25 11:32:45;;;;;;;53.58;25.42;;;3.80;98.60;;;;;;5068190;28;20049;-66
2022/01/25 11:35:13;;;;;;;54.28;24.98;;;3.80;98.50;;;;;;5069461;28;20499;-67
2022/01/25 11:37:42;;;;;;;59.60;25.23;;;3.80;98.40;;;;;;5068175;28;20453;-67
2022/01/25 11:40:30;;;;;;;48.65;23.25;;;3.70;98.50;;;;;;5069671;28;20076;-67
2022/01/25 11:43:02;;;;;;;58.63;25.25;;;3.70;98.70;;;;;;5055604;28;20129;-67
2022/01/25 11:45:30;;;;;;;57.75;25.83;;;3.50;98.60;;;;;;5054989;28;20072;-66
2022/01/25 11:47:58;;;;;;;49.15;23.20;;;3.80;98.50;;;;;;5069162;28;20056;-67
2022/01/25 11:50:32;;;;;;;50.55;24.58;;;3.80;98.50;;;;;;5024601;28;1249198;-67
2022/01/25 11:53:05;;;;;;;52.38;23.10;;;3.80;98.40;;;;;;5070131;28;20448;-67
2022/01/25 11:55:46;;;;;;;48.10;23.67;;;3.80;98.30;;;;;;5069242;28;20381;-67
2022/01/25 11:58:21;;;;;;;53.78;23.65;;;3.70;98.40;;;;;;5070165;28;20124;-67
2022/01/25 12:00:49;;;;;;;56.20;25.58;;;3.70;98.40;;;;;;5068833;28;20044;-67
2022/01/25 12:03:19;;;;;;;56.55;25.90;;;3.70;98.60;;;;;;5068562;28;20053;-68
2022/01/25 12:06:20;;;;;;;59.08;27.23;;;3.70;98.60;;;;;;5070119;28;20048;-66
2022/01/25 12:11:58;;;;;;;69.53;26.08;;;4.00;98.70;;;;;;5069273;28;20469;-66
2022/01/25 12:14:26;;;;;;;63.80;25.50;;;3.80;98.80;;;;;;5069425;28;20255;-67
2022/01/25 12:16:59;;;;;;;61.58;25.80;;;3.80;98.50;;;;;;5068286;28;20052;-67
2022/01/25 12:19:53;;;;;;;52.85;24.52;;;3.90;98.70;;;;;;5069633;28;20048;-67
2022/01/25 12:22:37;;;;;;;56.30;25.90;;;3.80;98.60;;;;;;5069715;28;20052;-66
2022/01/25 12:25:33;;;;;;;56.57;26.40;;;3.90;98.60;;;;;;5070013;28;20513;-66
2022/01/25 12:28:09;;;;;;;54.70;24.95;;;3.80;98.70;;;;;;5069756;28;20116;-67
2022/01/25 12:30:38;;;;;;;57.17;25.58;;;3.80;98.70;;;;;;5069997;28;20113;-67
2022/01/25 12:33:29;;;;;;;52.50;25.35;;;3.90;98.80;;;;;;5069794;28;20052;-67
2022/01/25 12:35:59;;;;;;;60.05;26.77;;;4.00;98.70;;;;;;5064044;28;20480;-66
2022/01/25 12:38:43;;;;;;;60.03;26.42;;;4.00;98.60;;;;;;5069027;28;20380;-67
2022/01/25 12:41:15;;;;;;;76.13;29.42;;;4.00;98.50;;;;;;5048774;28;20048;-66
2022/01/25 12:43:45;;;;;;;55.10;23.40;;;3.90;98.60;;;;;;5066467;28;20079;-67
2022/01/25 12:46:18;;;;;;;59.08;24.50;;;4.00;98.60;;;;;;5049495;28;20785;-67
2022/01/25 12:48:47;;;;;;;55.77;25.33;;;3.90;98.60;;;;;;5064051;28;20114;-67
2022/01/25 12:51:19;;;;;;;58.97;26.70;;;3.90;98.50;;;;;;5068941;28;20471;-66
2022/01/25 12:53:49;;;;;;;55.75;25.15;;;3.90;98.30;;;;;;5069110;28;20094;-67
2022/01/25 12:56:18;;;;;;;49.45;23.98;;;3.70;98.50;;;;;;5069082;28;20055;-67
2022/01/25 12:58:46;;;;;;;51.67;25.17;;;3.70;98.60;;;;;;5068671;28;20044;-67
2022/01/25 13:01:15;;;;;;;60.70;25.42;;;3.70;98.50;;;;;;5068706;28;20129;-67
2022/01/25 13:03:52;;;;;;;51.70;24.45;;;3.80;98.60;;;;;;5067480;28;20106;-68
2022/01/25 13:06:21;;;;;;;61.20;26.55;;;3.80;98.60;;;;;;5068885;28;20526;-67
2022/01/25 13:09:00;;;;;;;48.22;24.25;;;3.80;98.70;;;;;;5068928;28;20044;-67
2022/01/25 13:11:47;;;;;;;51.60;23.80;;;3.90;98.60;;;;;;5068299;28;20075;-66
2022/01/25 13:14:33;;;;;;;53.75;24.85;;;3.90;98.50;;;;;;5068733;28;20049;-66
2022/01/25 13:17:03;;;;;;;60.42;25.55;;;3.90;98.30;;;;;;5068834;28;20389;-66
2022/01/25 13:19:38;;;;;;;67.03;24.48;;;3.70;98.60;;;;;;5067178;28;20063;-67
2022/01/25 13:22:09;;;;;;;53.33;24.60;;;3.80;98.90;;;;;;5069055;28;20082;-67
2022/01/25 13:24:44;;;;;;;53.40;23.45;;;3.60;98.80;;;;;;5069426;28;20087;-66
2022/01/25 13:27:13;;;;;;;46.28;22.83;;;3.60;98.70;;;;;;5052089;28;20052;-66
2022/01/25 13:32:31;;;;;;;60.22;26.38;;;3.50;98.90;;;;;;5068748;28;20048;-66
2022/01/25 13:35:29;;;;;;;54.20;24.17;;;3.50;99.00;;;;;;5067416;28;20048;-66
2022/01/25 13:38:17;;;;;;;54.40;24.52;;;3.50;99.10;;;;;;5048660;28;20135;-67
2022/01/25 13:40:57;;;;;;;50.30;22.80;;;3.50;99.10;;;;;;5065945;28;20504;-67
2022/01/25 13:46:13;;;;;;;58.55;28.50;;;3.50;99.20;;;;;;5068366;28;20427;-68
2022/01/25 13:48:40;;;;;;;69.30;27.77;;;3.50;99.20;;;;;;5067150;28;20048;-67
2022/01/25 13:51:11;;;;;;;62.65;27.98;;;3.60;99.10;;;;;;5068413;28;20204;-67
2022/01/25 13:53:38;;;;;;;52.55;25.33;;;3.70;99.00;;;;;;5068386;28;20453;-66
2022/01/25 13:56:10;;;;;;;54.38;26.33;;;3.80;98.80;;;;;;5066994;28;20371;-67
2022/01/25 13:58:40;;;;;;;51.92;25.23;;;3.80;98.70;;;;;;5066703;28;20086;-67
2022/01/25 14:01:08;;;;;;;57.03;26.75;;;3.90;98.80;;;;;;5068306;28;20044;-67
2022/01/25 14:03:38;;;;;;;54.92;26.35;;;4.00;98.70;;;;;;5068150;28;20374;-67
2022/01/25 14:06:29;;;;;;;54.13;26.83;;;3.80;98.70;;;;;;5068054;28;20052;-67
2022/01/25 14:09:19;;;;;;;56.65;25.73;;;3.70;98.90;;;;;;5048386;28;20044;-67
2022/01/25 14:25:37;;;;;;;49.28;22.05;;;3.60;99.00;;;;;;5067921;28;20526;-67
2022/01/25 14:28:06;;;;;;;49.80;24.58;;;3.50;99.00;;;;;;5065322;28;20110;-67
2022/01/25 14:30:35;;;;;;;51.03;23.23;;;3.50;99.00;;;;;;5067447;28;20110;-67
2022/01/25 14:33:04;;;;;;;56.75;24.30;;;3.50;99.20;;;;;;5067624;28;20049;-66
2022/01/25 14:35:31;;;;;;;55.42;22.73;;;3.50;99.30;;;;;;5068119;28;20076;-66
2022/01/25 14:38:04;;;;;;;47.97;21.23;;;3.70;99.00;;;;;;5072781;28;20499;-68
2022/01/25 14:40:31;;;;;;;45.88;20.95;;;3.60;99.00;;;;;;5075980;28;20045;-67
2022/01/25 14:42:58;;;;;;;44.05;21.52;;;3.70;99.00;;;;;;5075955;28;20056;-67
2022/01/25 14:45:25;;;;;;;58.08;23.30;;;3.60;99.00;;;;;;5073076;28;20044;-68
2022/01/25 14:47:53;;;;;;;43.25;21.17;;;3.70;99.20;;;;;;5070631;28;20392;-69
2022/01/25 14:50:32;;;;;;;56.58;25.90;;;4.10;99.20;;;;;;5071678;28;20048;-69
2022/01/25 14:53:14;;;;;;;54.75;23.52;;;3.60;99.20;;;;;;5069685;28;20114;-67
2022/01/25 14:55:41;;;;;;;53.35;23.63;;;3.70;99.30;;;;;;5051493;28;20404;-67
2022/01/25 15:01:01;;;;;;;57.08;22.67;;;3.70;99.30;;;;;;5051107;28;20049;-67